fecha-hora | temperatura | viento dirección-velocidad-rachas | humedad | presión

  • 11-04-2019 21:00:00 | 11.10°C | Oeste-29.00 km/h - 35.00 km/h | 80.00% | 0.00 hPa
  • 11-04-2019 20:00:00 | 11.60°C | Oeste-25.00 km/h - 32.00 km/h | 81.00% | 0.00 hPa
  • 11-04-2019 19:00:00 | 11.80°C | Oeste-25.00 km/h - 36.00 km/h | 77.00% | 0.00 hPa
  • 11-04-2019 18:00:00 | 11.60°C | Noroeste-28.00 km/h - 36.00 km/h | 76.00% | 0.00 hPa
  • 11-04-2019 17:00:00 | 12.00°C | Noroeste-27.00 km/h - 33.00 km/h | 78.00% | 0.00 hPa
  • 11-04-2019 16:00:00 | 12.30°C | Noroeste-25.00 km/h - 31.00 km/h | 78.00% | 0.00 hPa
  • 11-04-2019 15:00:00 | 12.20°C | Noroeste-24.00 km/h - 46.00 km/h | 80.00% | 0.00 hPa
  • 11-04-2019 14:00:00 | 10.60°C | Oeste-45.00 km/h - 53.00 km/h | 87.00% | 0.00 hPa
  • 11-04-2019 13:00:00 | 10.90°C | Oeste-37.00 km/h - 46.00 km/h | 89.00% | 0.00 hPa
  • 11-04-2019 12:00:00 | 10.90°C | Oeste-30.00 km/h - 49.00 km/h | 84.00% | 0.00 hPa
  • 11-04-2019 11:00:00 | 11.20°C | Oeste-45.00 km/h - 55.00 km/h | 88.00% | 0.00 hPa
  • 11-04-2019 10:00:00 | 10.90°C | Oeste-46.00 km/h - 58.00 km/h | 85.00% | 0.00 hPa
  • 11-04-2019 09:00:00 | 10.90°C | Oeste-48.00 km/h - 57.00 km/h | 79.00% | 0.00 hPa
  • 11-04-2019 08:00:00 | 10.50°C | Oeste-27.00 km/h - 56.00 km/h | 89.00% | 0.00 hPa
  • 11-04-2019 07:00:00 | 10.70°C | Oeste-32.00 km/h - 46.00 km/h | 90.00% | 0.00 hPa
  • 11-04-2019 06:00:00 | 11.00°C | Oeste-36.00 km/h - 43.00 km/h | 84.00% | 0.00 hPa
  • 11-04-2019 05:00:00 | 11.10°C | Oeste-33.00 km/h - 42.00 km/h | 83.00% | 0.00 hPa
  • 11-04-2019 04:00:00 | 11.00°C | Oeste-31.00 km/h - 39.00 km/h | 81.00% | 0.00 hPa
  • 11-04-2019 03:00:00 | 11.10°C | Noroeste-31.00 km/h - 37.00 km/h | 81.00% | 0.00 hPa
  • 11-04-2019 02:00:00 | 11.20°C | Oeste-28.00 km/h - 40.00 km/h | 83.00% | 0.00 hPa
  • 11-04-2019 01:00:00 | 11.30°C | Noroeste-29.00 km/h - 36.00 km/h | 83.00% | 0.00 hPa
  • 11-04-2019 00:00:00 | 10.60°C | Oeste-27.00 km/h - 53.00 km/h | 78.00% | 0.00 hPa
  • 10-04-2019 23:00:00 | 11.50°C | Oeste-31.00 km/h - 41.00 km/h | 87.00% | 0.00 hPa
  • 10-04-2019 22:00:00 | 11.60°C | Oeste-32.00 km/h - 41.00 km/h | 84.00% | 0.00 hPa
    • diseño web asturias Información sobre el estado de las mareas, altura de la marejada, temperatura del agua y otros datos de Gijón en Asturias.

      Surf Gijón